Time;durP1;ratioP1;P1;durP2;ratioP2;P2;SDS_P1;SDS_P2;PMS_P1;PMS_P2;Temp;Humidity;BMP_temperature;BMP_pressure;BME280_temperature;BME280_humidity;BME280_pressure;Samples;Min_cycle;Max_cycle;Signal;HPM_P1;HPM_P2
2023/05/07 00:01:15;;;;;;;2.00;1.90;;;;;;;14.16;100.00;96444.84;5071201;28;20206;-59
2023/05/07 00:03:42;;;;;;;2.37;2.17;;;;;;;14.17;100.00;96447.31;5071143;28;20230;-59
2023/05/07 00:06:08;;;;;;;2.27;2.10;;;;;;;14.11;100.00;96449.81;5070487;28;20281;-59
2023/05/07 00:08:35;;;;;;;4.30;2.10;;;;;;;14.09;100.00;96446.53;5071201;28;20207;-59
2023/05/07 00:11:03;;;;;;;2.20;1.93;;;;;;;14.14;100.00;96452.13;5070671;28;20206;-60
2023/05/07 00:13:30;;;;;;;1.80;1.70;;;;;;;14.02;100.00;96448.19;5070393;28;20202;-60
2023/05/07 00:15:57;;;;;;;2.97;1.87;;;;;;;14.05;100.00;96442.53;5070975;28;20542;-59
2023/05/07 00:18:23;;;;;;;3.30;1.77;;;;;;;13.95;100.00;96438.25;5071058;28;20214;-60
2023/05/07 00:20:50;;;;;;;2.47;2.10;;;;;;;13.96;100.00;96437.22;5070822;28;20316;-59
2023/05/07 00:23:16;;;;;;;2.23;1.77;;;;;;;13.98;100.00;96437.06;5070804;28;20210;-60
2023/05/07 00:25:43;;;;;;;2.07;1.90;;;;;;;13.95;100.00;96434.75;5070705;28;20218;-59
2023/05/07 00:28:10;;;;;;;2.77;2.37;;;;;;;14.02;100.00;96435.72;5070517;28;20256;-60
2023/05/07 00:30:37;;;;;;;2.00;1.90;;;;;;;13.97;100.00;96435.41;5069757;28;20651;-60
2023/05/07 00:33:03;;;;;;;2.00;1.90;;;;;;;13.85;100.00;96432.25;5070810;28;20218;-60
2023/05/07 00:35:30;;;;;;;2.20;1.87;;;;;;;13.84;100.00;96440.41;5070552;28;20259;-60
2023/05/07 00:37:56;;;;;;;3.33;1.90;;;;;;;13.80;100.00;96439.09;5070313;28;20653;-61
2023/05/07 00:40:24;;;;;;;2.37;2.13;;;;;;;13.81;100.00;96436.28;5070718;28;20216;-60
2023/05/07 00:42:52;;;;;;;1.80;1.70;;;;;;;13.80;100.00;96439.09;5069888;28;20226;-61
2023/05/07 00:45:20;;;;;;;2.03;1.83;;;;;;;13.74;100.00;96429.13;5070414;28;20289;-60
2023/05/07 00:47:46;;;;;;;3.50;1.90;;;;;;;13.69;100.00;96432.28;5070858;28;20221;-60
2023/05/07 00:50:13;;;;;;;2.93;1.77;;;;;;;13.71;100.00;96424.97;5070425;28;20214;-59
2023/05/07 00:52:41;;;;;;;2.80;2.00;;;;;;;13.73;100.00;96419.50;5070181;28;20214;-59
2023/05/07 00:55:08;;;;;;;2.83;1.93;;;;;;;13.74;100.00;96427.31;5069632;28;20731;-60
2023/05/07 00:57:37;;;;;;;4.00;1.77;;;;;;;13.71;100.00;96427.63;5074334;28;20210;-60
2023/05/07 01:00:04;;;;;;;1.80;1.70;;;;;;;13.69;100.00;96416.34;5076993;28;20210;-62
2023/05/07 01:02:32;;;;;;;2.40;1.97;;;;;;;13.63;100.00;96422.34;5077635;28;20226;-61
2023/05/07 01:04:59;;;;;;;2.00;1.90;;;;;;;13.64;100.00;96417.84;5076851;28;20553;-61
2023/05/07 01:07:25;;;;;;;2.60;2.00;;;;;;;13.63;100.00;96424.16;5075698;28;20206;-61
2023/05/07 01:09:52;;;;;;;1.93;1.77;;;;;;;13.67;100.00;96423.66;5075767;28;20206;-60
2023/05/07 01:12:18;;;;;;;2.77;2.57;;;;;;;13.62;100.00;96420.66;5075780;28;20225;-61
2023/05/07 01:14:45;;;;;;;3.30;1.90;;;;;;;13.54;100.00;96423.31;5074619;28;20213;-60
2023/05/07 01:17:11;;;;;;;1.87;1.77;;;;;;;13.49;100.00;96423.00;5072734;28;20210;-61
2023/05/07 01:19:39;;;;;;;2.33;2.00;;;;;;;13.52;100.00;96425.31;5074511;28;20202;-60
2023/05/07 01:22:10;;;;;;;2.30;2.10;;;;;;;13.54;100.00;96422.47;5073582;28;20232;-61
2023/05/07 01:24:38;;;;;;;2.37;2.17;;;;;;;13.54;100.00;96420.66;5073710;28;20230;-62
2023/05/07 01:27:05;;;;;;;2.23;1.93;;;;;;;13.48;100.00;96418.69;5073971;28;20284;-61
2023/05/07 01:29:33;;;;;;;2.40;2.10;;;;;;;13.40;100.00;96426.63;5074866;28;20206;-61
2023/05/07 01:32:00;;;;;;;2.50;2.10;;;;;;;13.37;100.00;96419.00;5075241;28;20211;-60
2023/05/07 01:34:28;;;;;;;3.07;2.17;;;;;;;13.38;100.00;96423.31;5074510;28;20210;-60
2023/05/07 01:36:55;;;;;;;2.50;2.17;;;;;;;13.39;100.00;96427.66;5073808;28;20211;-60
2023/05/07 01:39:22;;;;;;;2.17;2.07;;;;;;;13.36;100.00;96427.97;5073381;28;20639;-60
2023/05/07 01:41:50;;;;;;;2.00;1.90;;;;;;;13.42;100.00;96429.97;5073134;28;20693;-62
2023/05/07 01:44:17;;;;;;;2.37;2.20;;;;;;;13.38;100.00;96424.16;5073665;28;20226;-60
2023/05/07 01:46:44;;;;;;;2.50;2.30;;;;;;;13.33;100.00;96430.94;5072987;28;20199;-60
2023/05/07 01:49:10;;;;;;;5.50;2.27;;;;;;;13.35;100.00;96429.81;5073368;28;20198;-60
2023/05/07 01:51:37;;;;;;;2.80;2.20;;;;;;;13.31;100.00;96419.69;5073052;28;20206;-60
2023/05/07 01:54:03;;;;;;;3.93;2.30;;;;;;;13.24;100.00;96421.31;5073442;28;20207;-62
2023/05/07 01:56:30;;;;;;;2.37;2.13;;;;;;;13.20;100.00;96420.00;5073017;28;20206;-60
2023/05/07 01:58:58;;;;;;;3.67;2.20;;;;;;;13.18;100.00;96422.00;5072198;28;20213;-60
2023/05/07 02:01:24;;;;;;;2.37;2.17;;;;;;;13.16;100.00;96421.31;5072814;28;20213;-60
2023/05/07 02:03:51;;;;;;;2.47;2.27;;;;;;;13.19;100.00;96426.28;5073491;28;20230;-60
2023/05/07 02:06:17;;;;;;;2.70;2.23;;;;;;;13.10;100.00;96424.63;5072977;28;20548;-60
2023/05/07 02:08:43;;;;;;;2.50;2.30;;;;;;;13.09;100.00;96425.59;5072225;28;20207;-60
2023/05/07 02:11:10;;;;;;;3.13;1.90;;;;;;;13.05;100.00;96432.22;5072813;28;20554;-60
2023/05/07 02:13:37;;;;;;;3.27;2.20;;;;;;;13.13;100.00;96429.59;5070423;28;20541;-60
2023/05/07 02:16:05;;;;;;;4.87;2.23;;;;;;;13.05;100.00;96432.22;5072708;28;20640;-58
2023/05/07 02:18:32;;;;;;;2.17;2.00;;;;;;;13.08;100.00;96438.03;5073192;28;20540;-60
2023/05/07 02:20:59;;;;;;;5.77;2.20;;;;;;;13.04;100.00;96441.19;5072555;28;20574;-61
2023/05/07 02:23:25;;;;;;;2.50;2.30;;;;;;;12.97;100.00;96436.50;5073580;28;20549;-61
2023/05/07 02:25:53;;;;;;;2.27;2.10;;;;;;;12.99;100.00;96439.00;5072825;28;20213;-60
2023/05/07 02:28:19;;;;;;;4.53;1.93;;;;;;;12.91;100.00;96437.16;5072640;28;20494;-60
2023/05/07 02:30:46;;;;;;;1.90;1.80;;;;;;;12.89;100.00;96436.47;5072934;28;20514;-60
2023/05/07 02:33:14;;;;;;;2.23;2.03;;;;;;;12.92;100.00;96449.47;5073080;28;20215;-61
2023/05/07 02:35:41;;;;;;;2.47;2.37;;;;;;;12.91;100.00;96444.28;5073212;28;20535;-60
2023/05/07 02:38:07;;;;;;;4.27;2.00;;;;;;;12.84;100.00;96445.94;5074831;28;20213;-61
2023/05/07 02:40:38;;;;;;;1.80;1.70;;;;;;;12.81;100.00;96452.41;5074603;28;20236;-60
2023/05/07 02:43:04;;;;;;;2.80;2.03;;;;;;;12.75;100.00;96449.56;5072459;28;20230;-60
2023/05/07 02:45:31;;;;;;;2.90;1.87;;;;;;;12.82;100.00;96451.38;5072754;28;20560;-60
2023/05/07 02:47:57;;;;;;;2.00;1.90;;;;;;;12.81;100.00;96448.91;5072521;28;20198;-61
2023/05/07 02:50:28;;;;;;;2.20;2.00;;;;;;;12.77;100.00;96447.56;5072726;28;20206;-58
2023/05/07 02:52:54;;;;;;;2.27;2.07;;;;;;;12.76;100.00;96445.91;5072811;28;20639;-60
2023/05/07 02:55:20;;;;;;;2.03;1.93;;;;;;;12.77;100.00;96450.22;5074550;28;20202;-61
2023/05/07 02:57:47;;;;;;;2.00;1.90;;;;;;;12.74;100.00;96442.59;5072879;28;20207;-61
2023/05/07 03:00:16;;;;;;;2.47;1.97;;;;;;;12.68;100.00;96449.34;5073710;28;20202;-60
2023/05/07 03:02:43;;;;;;;1.63;1.53;;;;;;;12.64;100.00;96449.84;5072555;28;20206;-60
2023/05/07 03:05:10;;;;;;;3.10;2.13;;;;;;;12.64;100.00;96450.69;5072047;28;20612;-61
2023/05/07 03:07:38;;;;;;;2.90;1.90;;;;;;;12.69;100.00;96447.53;5071480;28;20215;-60
2023/05/07 03:10:05;;;;;;;2.17;1.87;;;;;;;12.64;100.00;96440.09;5072660;28;20206;-60
2023/05/07 03:12:32;;;;;;;1.77;1.60;;;;;;;12.59;100.00;96445.03;5072186;28;20261;-60
2023/05/07 03:14:58;;;;;;;1.80;1.70;;;;;;;12.62;100.00;96439.41;5071814;28;20245;-59
2023/05/07 03:17:24;;;;;;;1.63;1.53;;;;;;;12.69;100.00;96444.88;5073012;28;20199;-59
2023/05/07 03:19:51;;;;;;;3.30;1.90;;;;;;;12.54;100.00;96436.69;5071977;28;20202;-58
2023/05/07 03:22:18;;;;;;;1.97;1.87;;;;;;;12.56;100.00;96440.03;5072160;28;20242;-61
2023/05/07 03:24:45;;;;;;;2.50;2.07;;;;;;;12.46;100.00;96437.53;5072612;28;20226;-60
2023/05/07 03:27:12;;;;;;;2.40;2.10;;;;;;;12.46;100.00;96439.34;5072302;28;20198;-61
2023/05/07 03:29:38;;;;;;;2.30;2.00;;;;;;;12.47;100.00;96444.47;5071938;28;20518;-60
2023/05/07 03:32:06;;;;;;;2.50;2.00;;;;;;;12.45;100.00;96438.50;5072418;28;20554;-60
2023/05/07 03:34:32;;;;;;;2.10;1.93;;;;;;;12.46;100.00;96442.00;5072608;28;20260;-60
2023/05/07 03:36:59;;;;;;;5.37;2.40;;;;;;;12.45;100.00;96438.50;5072665;28;20211;-62
2023/05/07 03:39:25;;;;;;;2.23;2.00;;;;;;;12.40;100.00;96442.63;5072784;28;20203;-61
2023/05/07 03:41:53;;;;;;;2.60;1.80;;;;;;;12.36;100.00;96451.91;5071719;28;20202;-61
2023/05/07 03:44:20;;;;;;;1.77;1.67;;;;;;;12.35;100.00;96455.53;5071273;28;20222;-60
2023/05/07 03:46:46;;;;;;;1.97;1.77;;;;;;;12.36;100.00;96462.50;5071057;28;20203;-60
2023/05/07 03:49:13;;;;;;;1.97;1.77;;;;;;;12.36;100.00;96457.19;5071331;28;20275;-61
2023/05/07 03:51:39;;;;;;;1.97;1.80;;;;;;;12.32;100.00;96459.34;5071061;28;20581;-60
2023/05/07 03:54:05;;;;;;;1.73;1.63;;;;;;;12.38;100.00;96460.50;5070932;28;20631;-60
2023/05/07 03:56:32;;;;;;;3.17;1.53;;;;;;;12.40;100.00;96455.88;5071475;28;20199;-60
2023/05/07 03:59:01;;;;;;;2.20;1.77;;;;;;;12.29;100.00;96461.47;5070645;28;20207;-61
2023/05/07 04:01:27;;;;;;;2.27;2.07;;;;;;;12.26;100.00;96467.06;5071278;28;20198;-61
2023/05/07 04:03:54;;;;;;;2.27;2.07;;;;;;;12.30;100.00;96473.72;5069511;28;20203;-60
2023/05/07 04:06:20;;;;;;;2.40;1.90;;;;;;;12.35;100.00;96471.44;5071022;28;20198;-60
2023/05/07 04:08:47;;;;;;;2.63;1.53;;;;;;;12.32;100.00;96479.72;5070317;28;20199;-60
2023/05/07 04:11:13;;;;;;;1.43;1.33;;;;;;;12.29;100.00;96472.09;5070433;28;20210;-60
2023/05/07 04:13:40;;;;;;;4.50;2.00;;;;;;;12.31;100.00;96470.94;5070900;28;20210;-60
2023/05/07 04:16:08;;;;;;;2.53;1.50;;;;;;;12.32;100.00;96477.06;5070756;28;20587;-60
2023/05/07 04:18:35;;;;;;;2.43;1.70;;;;;;;12.33;100.00;96473.41;5071274;28;20198;-60
2023/05/07 04:21:01;;;;;;;1.60;1.57;;;;;;;12.38;100.00;96471.13;5070115;28;20234;-60
2023/05/07 04:23:28;;;;;;;2.00;1.60;;;;;;;12.43;100.00;96479.44;5071212;28;20280;-60
2023/05/07 04:25:55;;;;;;;1.57;1.47;;;;;;;12.46;100.00;96479.13;5070422;28;20674;-60
2023/05/07 04:28:23;;;;;;;2.20;1.60;;;;;;;12.55;100.00;96472.84;5070135;28;20647;-60
2023/05/07 04:30:49;;;;;;;1.60;1.50;;;;;;;12.64;100.00;96487.00;5070892;28;20203;-59
2023/05/07 04:33:17;;;;;;;1.70;1.60;;;;;;;12.68;100.00;96483.84;5070168;28;20218;-59
2023/05/07 04:35:46;;;;;;;1.97;1.70;;;;;;;12.72;100.00;96490.50;5070588;28;20198;-60
2023/05/07 04:38:12;;;;;;;2.53;1.60;;;;;;;12.80;100.00;96490.53;5070314;28;20287;-61
2023/05/07 04:40:38;;;;;;;1.80;1.70;;;;;;;12.89;100.00;96486.09;5071004;28;20203;-60
2023/05/07 04:43:05;;;;;;;2.33;1.70;;;;;;;13.05;100.00;96495.91;5070226;28;20202;-60
2023/05/07 04:45:32;;;;;;;2.17;1.80;;;;;;;13.26;100.00;96491.03;5070485;28;20555;-59
2023/05/07 04:47:59;;;;;;;3.20;1.57;;;;;;;13.34;100.00;96489.22;5070021;28;20214;-59
2023/05/07 04:50:27;;;;;;;2.23;1.70;;;;;;;13.52;100.00;96486.44;5070648;28;20194;-60
2023/05/07 04:52:53;;;;;;;1.73;1.63;;;;;;;13.48;100.00;96482.44;5070083;28;20199;-60
2023/05/07 04:55:20;;;;;;;1.90;1.80;;;;;;;13.45;100.00;96488.91;5070859;28;20206;-60
2023/05/07 04:57:47;;;;;;;2.43;1.90;;;;;;;13.57;100.00;96485.94;5070533;28;20253;-60
2023/05/07 05:00:14;;;;;;;2.10;2.00;;;;;;;13.61;100.00;96489.91;5070652;28;20202;-60
2023/05/07 05:02:40;;;;;;;3.27;1.97;;;;;;;13.62;100.00;96489.75;5070215;28;20260;-59
2023/05/07 05:05:08;;;;;;;1.83;1.73;;;;;;;13.64;100.00;96485.09;5070406;28;20728;-60
2023/05/07 05:07:35;;;;;;;2.30;2.20;;;;;;;13.75;100.00;96495.38;5069734;28;20213;-59
2023/05/07 05:10:04;;;;;;;2.27;2.17;;;;;;;13.96;100.00;96506.34;5070379;28;20280;-60
2023/05/07 05:12:31;;;;;;;1.87;1.73;;;;;;;13.91;100.00;96508.69;5070042;28;20207;-60
2023/05/07 05:14:57;;;;;;;2.33;2.23;;;;;;;14.15;100.00;96507.00;5070079;28;20206;-59
2023/05/07 05:17:24;;;;;;;2.40;2.30;;;;;;;14.24;100.00;96514.78;5070300;28;20222;-60
2023/05/07 05:19:50;;;;;;;3.03;2.73;;;;;;;14.54;100.00;96518.59;5070563;28;20219;-60
2023/05/07 05:22:17;;;;;;;2.77;2.57;;;;;;;14.60;100.00;96525.06;5069614;28;20706;-60
2023/05/07 05:24:45;;;;;;;2.90;2.60;;;;;;;14.66;100.00;96529.72;5070343;28;20231;-60
2023/05/07 05:27:11;;;;;;;3.60;3.20;;;;;;;14.63;100.00;96528.19;5069695;28;20258;-60
2023/05/07 05:29:38;;;;;;;3.63;2.87;;;;;;;14.57;100.00;96533.38;5070087;28;20206;-60
2023/05/07 05:32:05;;;;;;;3.10;2.90;;;;;;;14.57;100.00;96538.69;5070007;28;20631;-61
2023/05/07 05:34:33;;;;;;;3.90;3.07;;;;;;;14.51;100.00;96534.06;5070315;28;20202;-60
2023/05/07 05:37:00;;;;;;;3.20;2.80;;;;;;;14.41;100.00;96540.41;5083203;28;20230;-60
2023/05/07 05:39:26;;;;;;;5.10;2.97;;;;;;;14.41;100.00;96534.25;5087231;28;20194;-60
2023/05/07 05:41:54;;;;;;;2.87;2.60;;;;;;;14.40;100.00;96528.09;5077284;28;20202;-60
2023/05/07 05:44:21;;;;;;;2.80;2.60;;;;;;;14.40;100.00;96527.28;5072255;28;20207;-60
2023/05/07 05:46:49;;;;;;;2.70;2.50;;;;;;;14.38;100.00;96529.28;5073507;28;20511;-60
2023/05/07 05:49:16;;;;;;;2.73;2.60;;;;;;;14.39;100.00;96528.25;5073879;28;20222;-60
2023/05/07 05:51:42;;;;;;;2.60;2.40;;;;;;;14.35;100.00;96524.28;5073434;28;20214;-60
2023/05/07 05:54:09;;;;;;;2.60;2.40;;;;;;;14.40;100.00;96527.28;5074095;28;20207;-59
2023/05/07 05:56:35;;;;;;;3.63;2.40;;;;;;;14.40;100.00;96527.28;5088855;28;20178;-60
2023/05/07 05:59:03;;;;;;;3.20;2.47;;;;;;;14.54;100.00;96539.03;5096644;28;20194;-60
2023/05/07 06:01:30;;;;;;;2.47;2.27;;;;;;;14.64;100.00;96545.00;5097805;28;20205;-59
2023/05/07 06:03:57;;;;;;;2.50;2.40;;;;;;;14.75;100.00;96556.13;5076067;28;20279;-60
2023/05/07 06:06:23;;;;;;;3.10;2.40;;;;;;;14.92;100.00;96555.06;5073593;28;20237;-58
2023/05/07 06:08:50;;;;;;;5.30;2.40;;;;;;;15.05;100.00;96559.03;5073034;28;20214;-59
2023/05/07 06:11:18;;;;;;;3.37;2.20;;;;;;;15.23;100.00;96556.97;5073354;28;20213;-60
2023/05/07 06:13:45;;;;;;;2.30;2.10;;;;;;;15.39;100.00;96559.53;5072675;28;20650;-60
2023/05/07 06:16:13;;;;;;;2.10;2.00;;;;;;;15.66;100.00;96564.38;5072782;28;20680;-60
2023/05/07 06:18:39;;;;;;;2.17;1.90;;;;;;;15.99;100.00;96564.16;5072692;28;20205;-60
2023/05/07 06:21:06;;;;;;;2.97;2.47;;;;;;;16.06;100.00;96575.78;5080128;28;20695;-61
2023/05/07 06:23:32;;;;;;;2.25;2.15;;;;;;;16.17;100.00;96578.03;5077959;28;20210;-60
2023/05/07 06:25:59;;;;;;;2.43;2.23;;;;;;;16.19;100.00;96576.84;5073116;28;20222;-59
2023/05/07 06:28:26;;;;;;;2.28;2.08;;;;;;;16.32;100.00;96576.25;5072882;28;20202;-59
2023/05/07 06:30:52;;;;;;;2.28;2.17;;;;;;;16.54;100.00;96580.72;5073653;28;20623;-60
2023/05/07 06:33:20;;;;;;;2.67;2.38;;;;;;;16.74;100.00;96584.53;5072861;28;20206;-60
2023/05/07 06:35:48;;;;;;;4.72;2.50;;;;;;;16.90;100.00;96583.53;5073673;28;20211;-60
2023/05/07 06:38:15;;;;;;;2.45;1.92;;;;;;;17.10;100.00;96581.16;5078881;28;20202;-61
2023/05/07 06:40:41;;;;;;;2.33;2.05;;;;;;;17.21;99.89;96578.00;5082574;28;20198;-60
2023/05/07 06:43:07;;;;;;;4.30;2.10;;;;;;;17.38;100.00;96582.97;5075244;28;20219;-60
2023/05/07 06:45:34;;;;;;;1.90;1.80;;;;;;;17.43;97.69;96580.53;5072066;28;20227;-60
2023/05/07 06:48:00;;;;;;;3.15;1.90;;;;;;;17.64;97.27;96581.66;5071864;28;20645;-59
2023/05/07 06:50:28;;;;;;;2.15;1.88;;;;;;;17.72;97.61;96587.72;5073349;28;20202;-60
2023/05/07 06:52:56;;;;;;;1.92;1.83;;;;;;;18.00;97.11;96584.28;5073161;28;20206;-60
2023/05/07 06:55:25;;;;;;;2.17;1.95;;;;;;;18.32;94.92;96576.59;5073632;28;20264;-61
2023/05/07 06:57:51;;;;;;;1.88;1.70;;;;;;;18.59;92.19;96580.34;5073089;28;20611;-60
2023/05/07 07:00:19;;;;;;;2.75;2.13;;;;;;;19.06;91.37;96560.06;5073958;28;20198;-60
2023/05/07 07:02:46;;;;;;;3.00;1.95;;;;;;;19.49;87.02;96566.06;5072001;28;20650;-59
2023/05/07 07:05:12;;;;;;;3.58;2.67;;;;;;;19.98;86.19;96571.97;5072342;28;20343;-59
2023/05/07 07:07:40;;;;;;;3.10;2.80;;;;;;;19.73;82.35;96563.66;5072117;28;20202;-59
2023/05/07 07:10:08;;;;;;;2.58;2.30;;;;;;;20.14;83.36;96560.06;5072657;28;20206;-60
2023/05/07 07:12:35;;;;;;;2.80;2.55;;;;;;;20.45;81.18;96572.91;5072275;28;20211;-59
2023/05/07 07:15:02;;;;;;;2.55;2.33;;;;;;;20.65;81.01;96571.88;5072428;28;20603;-61
2023/05/07 07:17:28;;;;;;;2.85;2.20;;;;;;;20.59;78.60;96561.97;5072122;28;20221;-59
2023/05/07 07:19:55;;;;;;;2.35;2.10;;;;;;;20.84;79.21;96567.50;5072180;28;20207;-60
2023/05/07 07:22:21;;;;;;;4.53;2.65;;;;;;;21.04;73.92;96562.97;5071137;28;20230;-59
2023/05/07 07:24:50;;;;;;;2.70;2.50;;;;;;;20.77;75.53;96567.53;5071053;28;20233;-60
2023/05/07 07:27:17;;;;;;;3.20;2.20;;;;;;;21.15;75.99;96575.75;5069676;28;20786;-60
2023/05/07 07:29:44;;;;;;;2.55;2.35;;;;;;;21.41;73.89;96572.19;5070026;28;20546;-61
2023/05/07 07:32:10;;;;;;;2.83;2.63;;;;;;;21.10;75.20;96567.50;5071003;28;21331;-60
2023/05/07 07:34:37;;;;;;;2.97;2.78;;;;;;;21.36;74.18;96574.69;5071224;28;20645;-59
2023/05/07 07:37:05;;;;;;;2.40;2.20;;;;;;;21.44;72.82;96569.06;5071448;28;20575;-60
2023/05/07 07:39:32;;;;;;;2.60;2.40;;;;;;;21.25;72.43;96570.78;5071531;28;20210;-60
2023/05/07 07:42:00;;;;;;;3.63;2.55;;;;;;;21.43;71.65;96567.44;5071788;28;20210;-60
2023/05/07 07:44:26;;;;;;;5.57;2.47;;;;;;;21.60;74.50;96576.66;5070931;28;20210;-61
2023/05/07 07:46:52;;;;;;;4.10;2.20;;;;;;;21.77;71.26;96577.00;5071118;28;20229;-60
2023/05/07 07:49:19;;;;;;;3.40;2.25;;;;;;;21.82;71.86;96580.69;5071667;28;20206;-59
2023/05/07 07:51:46;;;;;;;2.50;2.33;;;;;;;21.56;71.93;96580.81;5071151;28;20203;-59
2023/05/07 07:54:12;;;;;;;3.53;2.50;;;;;;;21.43;70.77;96578.19;5071458;28;20207;-62
2023/05/07 07:56:39;;;;;;;2.92;2.72;;;;;;;21.29;71.25;96592.72;5070219;28;20223;-59
2023/05/07 07:59:06;;;;;;;2.63;2.33;;;;;;;21.45;74.04;96580.66;5070503;28;20297;-60
2023/05/07 08:01:33;;;;;;;2.13;2.03;;;;;;;21.61;73.25;96581.00;5070969;28;20218;-60
2023/05/07 08:03:59;;;;;;;2.33;2.20;;;;;;;21.62;72.79;96585.34;5071924;28;20198;-60
2023/05/07 08:06:26;;;;;;;2.10;1.90;;;;;;;21.64;70.68;96593.22;5071134;28;20229;-61
2023/05/07 08:08:53;;;;;;;2.47;1.95;;;;;;;22.16;70.89;96594.84;5071141;28;20293;-61
2023/05/07 08:11:19;;;;;;;3.08;2.13;;;;;;;22.30;68.81;96586.47;5070886;28;20233;-60
2023/05/07 08:13:46;;;;;;;2.38;1.83;;;;;;;22.29;70.65;96600.97;5070456;28;20289;-60
2023/05/07 08:16:15;;;;;;;1.63;1.52;;;;;;;21.95;71.68;96600.56;5071118;28;20195;-64
2023/05/07 08:18:41;;;;;;;1.38;1.33;;;;;;;21.78;70.00;96592.94;5071056;28;21037;-60
2023/05/07 08:21:07;;;;;;;2.28;1.63;;;;;;;21.89;69.06;96598.69;5070803;28;20234;-60
2023/05/07 08:23:34;;;;;;;2.03;1.60;;;;;;;22.19;67.55;96597.09;5071036;28;20210;-64
2023/05/07 08:26:01;;;;;;;2.70;1.70;;;;;;;22.04;66.64;96593.88;5071396;28;20230;-63
2023/05/07 08:28:27;;;;;;;3.78;1.55;;;;;;;21.72;68.53;96593.78;5070625;28;20198;-63
2023/05/07 08:30:54;;;;;;;1.73;1.60;;;;;;;21.59;68.59;96598.41;5070900;28;20267;-63
2023/05/07 08:33:21;;;;;;;2.47;1.50;;;;;;;21.76;69.81;96588.81;5070823;28;20214;-61
2023/05/07 08:35:48;;;;;;;2.15;1.33;;;;;;;21.94;71.19;96596.19;5070623;28;20569;-62
2023/05/07 08:38:15;;;;;;;2.33;1.60;;;;;;;22.05;69.20;96593.66;5070293;28;20210;-62
2023/05/07 08:40:41;;;;;;;1.88;1.70;;;;;;;22.03;69.43;96590.38;5071309;28;20217;-58
2023/05/07 08:43:08;;;;;;;3.25;1.65;;;;;;;22.33;71.10;96595.97;5070644;28;20238;-59
2023/05/07 08:45:35;;;;;;;2.92;1.85;;;;;;;22.33;68.56;96588.72;5070583;28;20231;-59
2023/05/07 08:48:03;;;;;;;1.90;1.80;;;;;;;22.13;67.71;96592.59;5069036;28;20213;-58
2023/05/07 08:50:31;;;;;;;2.13;1.80;;;;;;;22.18;70.15;96590.88;5070054;28;20223;-60
2023/05/07 08:52:59;;;;;;;1.90;1.80;;;;;;;22.00;67.67;96588.09;5068539;28;20272;-59
2023/05/07 08:55:26;;;;;;;2.28;2.00;;;;;;;22.55;68.90;96594.56;5069648;28;20680;-59
2023/05/07 08:57:53;;;;;;;3.72;3.38;;;;;;;22.68;68.46;96588.28;5069748;28;20888;-59
2023/05/07 09:00:20;;;;;;;2.30;2.20;;;;;;;22.62;69.33;96589.97;5068784;28;20242;-59
2023/05/07 09:02:46;;;;;;;2.55;2.08;;;;;;;22.65;70.40;96592.22;5069687;28;20206;-59
2023/05/07 09:05:13;;;;;;;2.17;1.98;;;;;;;22.71;68.05;96593.22;5069125;28;20245;-58
2023/05/07 09:07:41;;;;;;;1.98;1.85;;;;;;;22.80;67.85;96590.06;5069669;28;20221;-59
2023/05/07 09:10:08;;;;;;;2.65;2.35;;;;;;;22.90;70.53;96575.22;5070325;28;20210;-59
2023/05/07 09:12:36;;;;;;;2.22;2.13;;;;;;;22.72;68.42;96584.94;5069797;28;20229;-58
2023/05/07 09:15:02;;;;;;;2.58;2.08;;;;;;;22.98;67.54;96570.38;5070359;28;20199;-60
2023/05/07 09:17:29;;;;;;;2.22;2.05;;;;;;;23.14;68.10;96571.66;5069566;28;20210;-59
2023/05/07 09:19:56;;;;;;;2.35;2.15;;;;;;;23.34;66.61;96580.41;5073798;28;20214;-59
2023/05/07 09:22:22;;;;;;;1.67;1.58;;;;;;;23.40;64.73;96576.78;5073193;28;20246;-59
2023/05/07 09:24:50;;;;;;;4.40;2.75;;;;;;;23.46;63.98;96581.31;5073999;28;20221;-59
2023/05/07 09:27:18;;;;;;;2.15;2.05;;;;;;;23.27;65.98;96582.34;5073274;28;20800;-59
2023/05/07 09:29:45;;;;;;;2.20;2.00;;;;;;;22.94;67.57;96576.44;5073256;28;20221;-59
2023/05/07 09:32:11;;;;;;;2.47;2.38;;;;;;;22.85;66.57;96578.56;5073902;28;20306;-59
2023/05/07 09:34:38;;;;;;;2.97;2.60;;;;;;;22.63;65.79;96580.00;5073914;28;20227;-58
2023/05/07 09:37:05;;;;;;;4.63;3.63;;;;;;;22.58;66.96;96577.97;5072608;28;20199;-60
2023/05/07 09:39:40;;;;;;;3.72;2.80;;;;;;;22.98;67.82;96565.00;5074170;28;20264;-59
2023/05/07 09:42:08;;;;;;;3.03;2.65;;;;;;;23.13;65.96;96560.03;5073600;28;20623;-60
2023/05/07 09:44:34;;;;;;;2.55;2.10;;;;;;;23.47;63.37;96561.38;5073400;28;20198;-59
2023/05/07 09:47:01;;;;;;;2.92;2.20;;;;;;;23.07;63.87;96566.34;5073182;28;20227;-60
2023/05/07 09:49:30;;;;;;;2.38;2.28;;;;;;;23.16;64.81;96564.19;5073249;28;20210;-59
2023/05/07 09:51:57;;;;;;;2.90;2.60;;;;;;;23.08;64.81;96568.00;5072990;28;20207;-58
2023/05/07 09:54:24;;;;;;;2.30;2.10;;;;;;;22.83;65.97;96558.28;5073607;28;20255;-60
2023/05/07 09:56:50;;;;;;;2.42;2.22;;;;;;;23.20;64.93;96560.00;5074016;28;20213;-59
2023/05/07 09:59:21;;;;;;;2.40;2.15;;;;;;;23.25;64.42;96560.13;5074027;28;20195;-59
2023/05/07 10:01:47;;;;;;;2.78;2.40;;;;;;;23.19;63.73;96564.56;5085685;28;20217;-60
2023/05/07 10:04:14;;;;;;;2.65;2.33;;;;;;;22.79;64.46;96549.81;5087501;28;20225;-60
2023/05/07 10:06:41;;;;;;;2.33;2.00;;;;;;;23.08;64.59;96561.78;5074941;28;20218;-59
2023/05/07 10:09:09;;;;;;;4.35;2.70;;;;;;;22.80;66.28;96546.91;5072854;28;20219;-58
2023/05/07 10:11:36;;;;;;;4.25;1.92;;;;;;;22.48;66.84;96549.84;5075009;28;20210;-58
2023/05/07 10:14:05;;;;;;;2.40;2.22;;;;;;;22.43;68.35;96545.09;5078869;28;20206;-60
2023/05/07 10:16:36;;;;;;;2.45;1.80;;;;;;;22.49;72.09;96540.72;5082478;28;20194;-59
2023/05/07 10:19:03;;;;;;;2.58;2.30;;;;;;;22.48;67.48;96537.19;5077215;28;20203;-60
2023/05/07 10:21:31;;;;;;;2.30;2.10;;;;;;;22.38;68.56;96531.47;5074559;28;20234;-59
2023/05/07 10:23:59;;;;;;;2.53;2.20;;;;;;;22.44;68.07;96529.78;5073550;28;20203;-59
2023/05/07 10:26:27;;;;;;;4.13;2.50;;;;;;;22.29;69.02;96530.09;5073630;28;20283;-60
2023/05/07 10:28:57;;;;;;;3.20;2.10;;;;;;;22.19;69.70;96532.44;5072624;28;20207;-60
2023/05/07 10:31:45;;;;;;;2.70;2.47;;;;;;;22.00;71.70;96531.53;5072715;28;20537;-60
2023/05/07 10:34:19;;;;;;;2.63;2.30;;;;;;;21.84;70.30;96527.47;5073306;28;20202;-59
2023/05/07 10:36:46;;;;;;;2.75;2.50;;;;;;;21.81;71.21;96527.91;5072867;28;20198;-59
2023/05/07 10:39:13;;;;;;;2.30;2.20;;;;;;;21.74;70.94;96527.13;5072971;28;20650;-60
2023/05/07 10:41:40;;;;;;;3.05;2.25;;;;;;;21.70;70.99;96517.81;5072453;28;20584;-59
2023/05/07 10:44:07;;;;;;;3.90;2.30;;;;;;;21.74;71.51;96526.28;5071675;28;20297;-58
2023/05/07 10:46:35;;;;;;;3.63;2.20;;;;;;;21.64;70.26;96525.94;5072611;28;21630;-59
2023/05/07 10:49:11;;;;;;;4.57;2.30;;;;;;;21.75;70.59;96525.25;5072688;28;20285;-59
2023/05/07 10:51:38;;;;;;;3.47;2.13;;;;;;;21.86;72.72;96523.75;5072230;28;20210;-59
2023/05/07 10:54:21;;;;;;;2.88;2.03;;;;;;;21.89;72.14;96523.31;5071751;28;20272;-58
2023/05/07 10:56:50;;;;;;;2.08;1.98;;;;;;;21.79;70.18;96516.50;5073216;28;20202;-60
2023/05/07 10:59:41;;;;;;;2.88;2.40;;;;;;;21.83;69.54;96514.22;5071989;28;20279;-58
2023/05/07 11:02:09;;;;;;;2.60;2.50;;;;;;;21.93;69.08;96511.91;5072611;28;20203;-58
2023/05/07 11:04:38;;;;;;;2.08;1.98;;;;;;;21.93;69.71;96508.41;5072466;28;20217;-58
2023/05/07 11:07:29;;;;;;;3.63;3.25;;;;;;;22.00;71.26;96506.50;5072587;28;20226;-59
2023/05/07 11:10:04;;;;;;;3.30;2.63;;;;;;;22.27;72.39;96507.94;5073391;28;20505;-58
2023/05/07 11:12:50;;;;;;;3.28;2.78;;;;;;;22.22;71.18;96497.00;5072157;28;20258;-58
2023/05/07 11:15:39;;;;;;;2.95;2.65;;;;;;;22.36;68.88;96495.84;5072954;28;20203;-60
2023/05/07 11:18:05;;;;;;;2.85;2.65;;;;;;;22.52;70.27;96492.59;5071896;28;20217;-59
2023/05/07 11:20:51;;;;;;;2.75;2.40;;;;;;;22.88;72.78;96496.44;5072368;28;20546;-58
2023/05/07 11:24:01;;;;;;;3.17;2.90;;;;;;;23.35;69.06;96497.56;5072855;28;20284;-59
2023/05/07 11:26:30;;;;;;;2.90;2.70;;;;;;;23.55;68.81;96493.59;5072181;28;20305;-58
2023/05/07 11:28:56;;;;;;;3.38;3.10;;;;;;;23.79;70.54;96499.91;5071408;28;20226;-59
2023/05/07 11:31:25;;;;;;;3.47;2.70;;;;;;;23.79;67.22;96495.34;5071873;28;20236;-58